Time;durP1;ratioP1;P1;durP2;ratioP2;P2;SDS_P1;SDS_P2;PMS_P1;PMS_P2;Temp;Humidity;BMP_temperature;BMP_pressure;BME280_temperature;BME280_humidity;BME280_pressure;Samples;Min_cycle;Max_cycle;Signal;HPM_P1;HPM_P2
2021/10/15 00:01:30;;;;;;;10.18;4.00;;;13.00;99.90;;;;;;5087692;28;20112;-73
2021/10/15 00:03:56;;;;;;;8.52;4.20;;;13.00;99.90;;;;;;5080511;28;20028;-73
2021/10/15 00:06:21;;;;;;;10.23;4.43;;;13.00;99.90;;;;;;5071773;28;20040;-73
2021/10/15 00:08:47;;;;;;;8.27;3.80;;;13.00;99.90;;;;;;5079914;28;20056;-73
2021/10/15 00:11:12;;;;;;;6.47;4.38;;;13.00;99.90;;;;;;5071169;28;20432;-73
2021/10/15 00:13:38;;;;;;;8.98;4.25;;;12.90;99.90;;;;;;5081446;28;20071;-74
2021/10/15 00:16:04;;;;;;;6.82;4.28;;;12.90;99.90;;;;;;5085080;28;20052;-73
2021/10/15 00:18:29;;;;;;;7.63;3.90;;;12.90;99.90;;;;;;5078871;28;20537;-73
2021/10/15 00:20:55;;;;;;;8.20;5.00;;;12.80;99.90;;;;;;5077203;28;20016;-74
2021/10/15 00:23:20;;;;;;;6.28;3.67;;;12.80;99.90;;;;;;5088524;28;20115;-73
2021/10/15 00:25:46;;;;;;;8.18;4.50;;;12.80;99.90;;;;;;5090513;28;20554;-73
2021/10/15 00:28:12;;;;;;;12.52;4.47;;;12.70;99.90;;;;;;5088719;28;20032;-73
2021/10/15 00:30:37;;;;;;;6.85;4.22;;;12.70;99.90;;;;;;5090264;28;20071;-73
2021/10/15 00:33:03;;;;;;;8.80;4.30;;;12.60;99.90;;;;;;5089131;28;20032;-73
2021/10/15 00:35:28;;;;;;;7.15;4.85;;;12.60;99.90;;;;;;5090317;28;20020;-73
2021/10/15 00:37:54;;;;;;;9.75;4.97;;;12.60;99.90;;;;;;5084769;28;20032;-73
2021/10/15 00:40:20;;;;;;;7.60;4.50;;;12.50;99.90;;;;;;5086352;28;20028;-73
2021/10/15 00:42:47;;;;;;;8.52;5.10;;;12.50;99.90;;;;;;5092693;28;20024;-74
2021/10/15 00:45:12;;;;;;;7.20;4.70;;;12.50;99.90;;;;;;5086370;28;20020;-73
2021/10/15 00:47:38;;;;;;;7.72;4.63;;;12.50;99.90;;;;;;5090342;28;20408;-74
2021/10/15 00:50:05;;;;;;;8.05;4.35;;;12.50;99.90;;;;;;5091125;28;20115;-73
2021/10/15 00:52:31;;;;;;;10.15;5.10;;;12.50;99.90;;;;;;5086496;28;20447;-73
2021/10/15 00:54:57;;;;;;;8.90;4.50;;;12.50;99.90;;;;;;5089372;28;20035;-74
2021/10/15 00:57:22;;;;;;;10.52;5.38;;;12.50;99.90;;;;;;5088699;28;20024;-73
2021/10/15 00:59:48;;;;;;;7.50;4.95;;;12.40;99.90;;;;;;5092738;28;20448;-73
2021/10/15 01:02:14;;;;;;;8.63;4.88;;;12.40;99.90;;;;;;5074248;28;20080;-73
2021/10/15 01:04:40;;;;;;;8.82;5.22;;;12.50;99.90;;;;;;5084980;28;20028;-73
2021/10/15 01:07:06;;;;;;;10.55;5.60;;;12.50;99.90;;;;;;5080645;28;20501;-72
2021/10/15 01:09:32;;;;;;;9.50;5.20;;;12.50;99.90;;;;;;5083009;28;20492;-73
2021/10/15 01:12:01;;;;;;;6.97;4.88;;;12.50;99.90;;;;;;5087231;28;20016;-72
2021/10/15 01:14:28;;;;;;;9.50;4.88;;;12.50;99.90;;;;;;5084579;28;20047;-73
2021/10/15 01:16:53;;;;;;;8.82;5.18;;;12.50;99.90;;;;;;5079909;28;20379;-72
2021/10/15 01:19:19;;;;;;;8.50;5.88;;;12.50;99.90;;;;;;5083377;28;20031;-74
2021/10/15 01:21:44;;;;;;;9.60;5.65;;;12.50;99.90;;;;;;5088078;28;20039;-74
2021/10/15 01:24:10;;;;;;;10.23;5.55;;;12.50;99.90;;;;;;5080301;28;20126;-73
2021/10/15 01:26:36;;;;;;;9.27;5.45;;;12.50;99.90;;;;;;5087597;28;20470;-73
2021/10/15 01:29:01;;;;;;;9.00;5.43;;;12.60;99.90;;;;;;5090267;28;20047;-74
2021/10/15 01:31:27;;;;;;;9.25;5.32;;;12.60;99.90;;;;;;5082769;28;20070;-72
2021/10/15 01:33:58;;;;;;;11.95;5.80;;;12.60;99.90;;;;;;5091388;28;20111;-73
2021/10/15 01:36:24;;;;;;;7.68;5.63;;;12.60;99.90;;;;;;5084597;28;20032;-73
2021/10/15 01:38:50;;;;;;;7.30;4.82;;;12.60;99.90;;;;;;5082191;28;20710;-73
2021/10/15 01:41:15;;;;;;;7.80;5.03;;;12.60;99.90;;;;;;5090249;28;20080;-74
2021/10/15 01:43:41;;;;;;;8.52;5.38;;;12.60;99.90;;;;;;5089593;28;20501;-73
2021/10/15 01:46:06;;;;;;;9.60;4.65;;;12.60;99.90;;;;;;5093067;28;20070;-73
2021/10/15 01:48:32;;;;;;;11.98;5.60;;;12.60;99.90;;;;;;5084903;28;20032;-73
2021/10/15 01:50:57;;;;;;;8.75;5.97;;;12.60;99.90;;;;;;5082229;28;20462;-73
2021/10/15 01:53:23;;;;;;;11.45;5.93;;;12.60;99.90;;;;;;5077076;28;20043;-73
2021/10/15 01:55:48;;;;;;;9.68;6.40;;;12.60;99.90;;;;;;5078356;28;20033;-72
2021/10/15 01:58:17;;;;;;;9.23;5.88;;;12.50;99.90;;;;;;5082671;28;20028;-73
2021/10/15 02:00:43;;;;;;;10.75;6.57;;;12.60;99.90;;;;;;5077495;28;20087;-71
2021/10/15 02:03:08;;;;;;;11.43;6.18;;;12.60;99.90;;;;;;5072481;28;20021;-70
2021/10/15 02:05:34;;;;;;;8.75;5.13;;;12.60;99.90;;;;;;5081231;28;20024;-71
2021/10/15 02:08:00;;;;;;;10.38;5.72;;;12.60;99.90;;;;;;5092232;28;20024;-71
2021/10/15 02:10:25;;;;;;;11.07;6.70;;;12.60;99.90;;;;;;5083486;28;20035;-71
2021/10/15 02:12:51;;;;;;;10.15;6.40;;;12.60;99.90;;;;;;5077075;28;20116;-71
2021/10/15 02:15:17;;;;;;;10.75;6.00;;;12.60;99.90;;;;;;5085488;28;20110;-71
2021/10/15 02:17:43;;;;;;;8.80;6.07;;;12.50;99.90;;;;;;5079003;28;20025;-73
2021/10/15 02:20:12;;;;;;;10.30;5.88;;;12.50;99.90;;;;;;5086009;28;20107;-73
2021/10/15 02:22:39;;;;;;;12.48;6.10;;;12.50;99.90;;;;;;5084937;28;20254;-73
2021/10/15 02:25:06;;;;;;;10.20;6.38;;;12.50;99.90;;;;;;5092381;28;20020;-73
2021/10/15 02:27:32;;;;;;;13.38;6.70;;;12.50;99.90;;;;;;5082526;28;20358;-74
2021/10/15 02:29:57;;;;;;;12.43;6.72;;;12.50;99.90;;;;;;5079350;28;20028;-73
2021/10/15 02:32:23;;;;;;;9.10;5.78;;;12.50;99.90;;;;;;5081992;28;20029;-73
2021/10/15 02:34:48;;;;;;;8.80;6.47;;;12.50;99.90;;;;;;5082370;28;20032;-73
2021/10/15 02:37:14;;;;;;;11.13;6.60;;;12.40;99.90;;;;;;5090416;28;20042;-73
2021/10/15 02:39:40;;;;;;;10.43;5.75;;;12.40;99.90;;;;;;5072478;28;20024;-72
2021/10/15 02:42:05;;;;;;;10.80;6.20;;;12.40;99.90;;;;;;5088544;28;20030;-73
2021/10/15 02:44:34;;;;;;;11.90;7.30;;;12.40;99.90;;;;;;5078814;28;20036;-73
2021/10/15 02:46:59;;;;;;;17.92;7.63;;;12.40;99.90;;;;;;5084362;28;20062;-72
2021/10/15 02:49:25;;;;;;;10.07;6.13;;;12.40;99.90;;;;;;5087307;28;20024;-72
2021/10/15 02:51:50;;;;;;;17.10;7.63;;;12.40;99.90;;;;;;5089818;28;20031;-73
2021/10/15 02:54:16;;;;;;;13.73;6.90;;;12.40;99.90;;;;;;5084719;28;20043;-73
2021/10/15 02:56:42;;;;;;;10.75;6.90;;;12.40;99.90;;;;;;5087617;28;20425;-73
2021/10/15 02:59:09;;;;;;;12.13;6.07;;;12.40;99.90;;;;;;5084439;28;20111;-73
2021/10/15 03:01:35;;;;;;;10.13;7.05;;;12.40;99.90;;;;;;5077475;28;20021;-73
2021/10/15 03:04:00;;;;;;;11.82;6.35;;;12.30;99.90;;;;;;5077139;28;20032;-73
2021/10/15 03:06:26;;;;;;;12.65;6.47;;;12.40;99.90;;;;;;5084481;28;20024;-73
2021/10/15 03:08:51;;;;;;;12.35;6.90;;;12.30;99.90;;;;;;5088030;28;20435;-73
2021/10/15 03:11:17;;;;;;;13.25;7.10;;;12.30;99.90;;;;;;5083573;28;20379;-73
2021/10/15 03:13:43;;;;;;;13.05;7.28;;;12.30;99.90;;;;;;5076729;28;20551;-73
2021/10/15 03:16:08;;;;;;;10.07;6.85;;;12.30;99.90;;;;;;5083223;28;20079;-73
2021/10/15 03:18:35;;;;;;;10.57;7.70;;;12.30;99.90;;;;;;5084619;28;20045;-73
2021/10/15 03:21:01;;;;;;;11.15;6.90;;;12.30;99.90;;;;;;5090827;28;20028;-73
2021/10/15 03:23:27;;;;;;;13.77;8.15;;;12.30;99.90;;;;;;5089326;28;20043;-73
2021/10/15 03:25:53;;;;;;;9.82;7.43;;;12.30;99.90;;;;;;5084721;28;20023;-73
2021/10/15 03:28:19;;;;;;;9.95;6.53;;;12.30;99.90;;;;;;5079682;28;20112;-73
2021/10/15 03:30:44;;;;;;;10.95;7.10;;;12.30;99.90;;;;;;5076532;28;22178;-73
2021/10/15 03:33:10;;;;;;;12.35;7.10;;;12.30;99.90;;;;;;5073464;28;20032;-72
2021/10/15 03:35:35;;;;;;;12.05;7.22;;;12.30;99.90;;;;;;5089521;28;20032;-72
2021/10/15 03:38:01;;;;;;;11.88;6.72;;;12.30;99.90;;;;;;5080996;28;20059;-73
2021/10/15 03:40:26;;;;;;;11.68;7.63;;;12.30;99.90;;;;;;5083927;28;20124;-73
2021/10/15 03:42:52;;;;;;;12.77;7.63;;;12.30;99.90;;;;;;5079917;28;20021;-72
2021/10/15 03:45:18;;;;;;;12.65;7.20;;;12.30;99.90;;;;;;5085216;28;20028;-73
2021/10/15 03:47:45;;;;;;;11.27;8.07;;;12.30;99.90;;;;;;5084165;28;20081;-72
2021/10/15 03:50:11;;;;;;;12.10;8.02;;;12.30;99.90;;;;;;5088911;28;20020;-73
2021/10/15 03:52:37;;;;;;;14.27;8.15;;;12.30;99.90;;;;;;5075853;28;20048;-73
2021/10/15 03:55:05;;;;;;;12.32;7.97;;;12.30;99.90;;;;;;5071394;28;20052;-73
2021/10/15 03:57:30;;;;;;;15.13;8.48;;;12.40;99.90;;;;;;5088585;28;20028;-73
2021/10/15 03:59:56;;;;;;;13.48;8.00;;;12.40;99.90;;;;;;5088454;28;20021;-73
2021/10/15 04:02:22;;;;;;;14.40;7.65;;;12.40;99.90;;;;;;5089276;28;20032;-73
2021/10/15 04:04:47;;;;;;;10.30;7.20;;;12.40;99.90;;;;;;5091189;28;20497;-73
2021/10/15 04:07:13;;;;;;;10.40;7.13;;;12.40;99.90;;;;;;5080278;28;20161;-73
2021/10/15 04:09:38;;;;;;;14.15;7.82;;;12.50;99.90;;;;;;5085806;28;20056;-72
2021/10/15 04:12:04;;;;;;;10.43;7.10;;;12.40;99.90;;;;;;5092797;28;20020;-71
2021/10/15 04:14:29;;;;;;;12.18;7.57;;;12.50;99.90;;;;;;5096415;28;20539;-71
2021/10/15 04:16:55;;;;;;;10.27;6.90;;;12.50;99.90;;;;;;5094115;28;20082;-72
2021/10/15 04:19:20;;;;;;;9.80;7.78;;;12.50;99.90;;;;;;5085847;28;20085;-71
2021/10/15 04:21:46;;;;;;;12.60;8.60;;;12.50;99.90;;;;;;5080887;28;20024;-72
2021/10/15 04:24:12;;;;;;;13.60;7.82;;;12.50;99.90;;;;;;5093534;28;20024;-72
2021/10/15 04:26:37;;;;;;;10.63;8.52;;;12.50;99.90;;;;;;5082982;28;20028;-71
2021/10/15 04:29:03;;;;;;;18.63;8.32;;;12.50;99.90;;;;;;5086971;28;20032;-71
2021/10/15 04:31:29;;;;;;;12.65;8.18;;;12.50;99.90;;;;;;5088475;28;20027;-72
2021/10/15 04:33:54;;;;;;;13.88;8.10;;;12.50;99.90;;;;;;5078495;28;20103;-72
2021/10/15 04:36:20;;;;;;;15.07;9.32;;;12.50;99.90;;;;;;5081160;28;20051;-72
2021/10/15 04:38:46;;;;;;;13.73;8.32;;;12.50;99.90;;;;;;5085378;28;20055;-72
2021/10/15 04:41:12;;;;;;;11.10;8.50;;;12.50;99.90;;;;;;5093912;28;20020;-72
2021/10/15 04:43:38;;;;;;;13.23;8.35;;;12.50;99.90;;;;;;5093654;28;20447;-72
2021/10/15 04:46:04;;;;;;;16.58;9.25;;;12.60;99.90;;;;;;5089358;28;20024;-72
2021/10/15 04:48:29;;;;;;;14.27;8.75;;;12.60;99.90;;;;;;5080801;28;20033;-72
2021/10/15 04:50:55;;;;;;;15.93;8.40;;;12.60;99.90;;;;;;5079195;28;20024;-72
2021/10/15 04:53:21;;;;;;;15.70;8.65;;;12.60;99.90;;;;;;5087109;28;20066;-72
2021/10/15 04:55:47;;;;;;;12.23;8.50;;;12.70;99.90;;;;;;5091233;28;20042;-73
2021/10/15 04:58:13;;;;;;;16.70;9.00;;;12.70;99.90;;;;;;5078773;28;20426;-72
2021/10/15 05:00:39;;;;;;;15.50;9.20;;;12.70;99.90;;;;;;5085084;28;20429;-72
2021/10/15 05:03:04;;;;;;;15.48;9.13;;;12.70;99.90;;;;;;5090270;28;20095;-72
2021/10/15 05:05:30;;;;;;;13.60;8.98;;;12.70;99.90;;;;;;5079206;28;20466;-73
2021/10/15 05:07:57;;;;;;;14.82;8.43;;;12.70;99.90;;;;;;5087818;28;20442;-73
2021/10/15 05:10:24;;;;;;;17.42;9.50;;;12.70;99.90;;;;;;5088355;28;20158;-73
2021/10/15 05:12:52;;;;;;;15.70;8.52;;;12.70;99.90;;;;;;5086218;28;20020;-73
2021/10/15 05:15:18;;;;;;;15.48;9.38;;;12.70;99.90;;;;;;5085445;28;20109;-73
2021/10/15 05:17:47;;;;;;;16.73;9.38;;;12.70;99.90;;;;;;5089541;28;20024;-72
2021/10/15 05:20:15;;;;;;;16.13;9.70;;;12.60;99.90;;;;;;5093058;28;20020;-73
2021/10/15 05:22:42;;;;;;;14.48;9.20;;;12.60;99.90;;;;;;5086505;28;20028;-73
2021/10/15 05:25:09;;;;;;;15.15;9.73;;;12.60;99.90;;;;;;5091840;28;20112;-73
2021/10/15 05:27:35;;;;;;;16.73;10.43;;;12.70;99.90;;;;;;5082204;28;20371;-72
2021/10/15 05:30:01;;;;;;;14.20;9.50;;;12.60;99.90;;;;;;5088920;28;20031;-72
2021/10/15 05:32:27;;;;;;;14.88;10.23;;;12.60;99.90;;;;;;5090295;28;20501;-72
2021/10/15 05:34:53;;;;;;;13.27;9.73;;;12.60;99.90;;;;;;5090183;28;20111;-73
2021/10/15 05:37:19;;;;;;;17.40;10.70;;;12.60;99.90;;;;;;5083833;28;20103;-73
2021/10/15 05:39:44;;;;;;;16.50;10.10;;;12.60;99.90;;;;;;5077455;28;20020;-73
2021/10/15 05:42:10;;;;;;;14.93;10.52;;;12.70;99.90;;;;;;5090629;28;20028;-72
2021/10/15 05:44:36;;;;;;;16.10;10.68;;;12.60;99.90;;;;;;5090275;28;20020;-73
2021/10/15 05:47:05;;;;;;;15.77;10.35;;;12.70;99.90;;;;;;5081256;28;20019;-74
2021/10/15 05:49:35;;;;;;;16.17;10.38;;;12.60;99.90;;;;;;5078692;28;20027;-73
2021/10/15 05:52:05;;;;;;;15.65;10.25;;;12.60;99.90;;;;;;5093414;28;20023;-72
2021/10/15 05:54:42;;;;;;;17.30;11.27;;;12.60;99.90;;;;;;5093057;28;20263;-75
2021/10/15 05:57:19;;;;;;;16.42;10.52;;;12.70;99.90;;;;;;5092695;28;20024;-72
2021/10/15 05:59:44;;;;;;;19.55;12.48;;;12.70;99.90;;;;;;5092071;28;20470;-73
2021/10/15 06:02:10;;;;;;;18.75;11.07;;;12.70;99.90;;;;;;5091318;28;20065;-73
2021/10/15 06:15:01;;;;;;;19.42;11.10;;;12.70;99.90;;;;;;5079004;28;20111;-71
2021/10/15 06:17:27;;;;;;;18.88;11.00;;;12.70;99.90;;;;;;5090640;28;20119;-72
2021/10/15 06:19:52;;;;;;;16.45;11.40;;;12.70;99.90;;;;;;5092353;28;20098;-71
2021/10/15 06:22:22;;;;;;;19.65;11.18;;;12.70;99.90;;;;;;5092476;28;20027;-72
2021/10/15 06:24:49;;;;;;;16.77;10.48;;;12.70;99.90;;;;;;5080753;28;20016;-71
2021/10/15 06:27:20;;;;;;;17.42;11.57;;;12.70;99.90;;;;;;5091904;28;20470;-71
2021/10/15 06:29:45;;;;;;;16.10;10.88;;;12.70;99.90;;;;;;5091848;28;20123;-71
2021/10/15 06:32:11;;;;;;;15.13;10.88;;;12.70;99.90;;;;;;5090720;28;20517;-71
2021/10/15 06:34:36;;;;;;;14.65;10.13;;;12.70;99.90;;;;;;5089999;28;20036;-72
2021/10/15 06:37:02;;;;;;;16.15;11.38;;;12.70;99.90;;;;;;5087490;28;20025;-72
2021/10/15 06:39:27;;;;;;;18.08;12.38;;;12.80;99.90;;;;;;5070830;28;20021;-71
2021/10/15 06:41:53;;;;;;;16.83;11.63;;;12.80;99.90;;;;;;5089546;28;20127;-72
2021/10/15 06:44:18;;;;;;;16.45;12.13;;;12.80;99.90;;;;;;5084827;28;20024;-73
2021/10/15 06:46:44;;;;;;;17.10;11.95;;;12.80;99.90;;;;;;5075784;28;20107;-73
2021/10/15 06:49:10;;;;;;;20.35;12.65;;;12.80;99.90;;;;;;5082515;28;20025;-73
2021/10/15 06:51:37;;;;;;;18.95;12.02;;;12.90;99.90;;;;;;5091363;28;20028;-72
2021/10/15 06:54:02;;;;;;;20.17;12.82;;;12.90;99.90;;;;;;5090606;28;20054;-73
2021/10/15 06:56:29;;;;;;;20.25;12.00;;;12.90;99.90;;;;;;5089388;28;20035;-74
2021/10/15 06:58:55;;;;;;;19.60;12.75;;;12.90;99.90;;;;;;5075160;28;20028;-71
2021/10/15 07:01:20;;;;;;;20.30;13.77;;;12.90;99.90;;;;;;5075959;28;20132;-71
2021/10/15 07:03:46;;;;;;;20.98;14.20;;;12.90;99.90;;;;;;5091235;28;20082;-71
2021/10/15 07:06:11;;;;;;;20.08;14.82;;;12.80;99.90;;;;;;5088911;28;20047;-71
2021/10/15 07:08:37;;;;;;;20.75;14.00;;;12.80;99.90;;;;;;5089552;28;20070;-73
2021/10/15 07:11:03;;;;;;;22.63;15.82;;;12.70;99.90;;;;;;5086051;28;20477;-71
2021/10/15 07:13:29;;;;;;;22.58;15.02;;;12.70;99.90;;;;;;5088355;28;20092;-72
2021/10/15 07:15:54;;;;;;;20.95;15.52;;;12.70;99.90;;;;;;5084929;28;20055;-71
2021/10/15 07:18:20;;;;;;;31.70;16.92;;;12.70;99.90;;;;;;5071813;28;20412;-69
2021/10/15 07:20:45;;;;;;;32.22;17.30;;;12.60;99.90;;;;;;5086440;28;20024;-72
2021/10/15 07:23:15;;;;;;;28.50;17.30;;;12.60;99.90;;;;;;5091715;28;20023;-73
2021/10/15 07:25:41;;;;;;;20.73;15.15;;;12.50;99.90;;;;;;5091064;28;20036;-74
2021/10/15 07:28:07;;;;;;;17.60;12.18;;;12.40;99.90;;;;;;5090991;28;20027;-74
2021/10/15 07:30:33;;;;;;;11.15;6.53;;;12.40;99.90;;;;;;5090366;28;20035;-76
2021/10/15 07:32:59;;;;;;;7.53;5.18;;;12.30;99.90;;;;;;5085015;28;20397;-75
2021/10/15 07:35:24;;;;;;;7.15;3.10;;;12.30;99.90;;;;;;5091297;28;20020;-76
2021/10/15 07:37:50;;;;;;;4.30;2.42;;;12.30;99.90;;;;;;5087349;28;20041;-76
2021/10/15 07:40:15;;;;;;;2.22;0.82;;;12.30;99.90;;;;;;5084964;28;20390;-76
2021/10/15 07:42:41;;;;;;;1.70;0.30;;;12.20;99.90;;;;;;5074705;28;20017;-76
2021/10/15 07:45:07;;;;;;;1.65;0.20;;;12.10;99.90;;;;;;5074906;28;20052;-76
2021/10/15 07:47:33;;;;;;;2.78;0.20;;;12.00;99.90;;;;;;5083581;28;20526;-76
2021/10/15 07:49:58;;;;;;;0.95;0.10;;;11.90;99.90;;;;;;5076523;28;20036;-75
2021/10/15 07:52:24;;;;;;;0.95;0.10;;;11.70;99.90;;;;;;5095276;28;20043;-76
2021/10/15 07:54:50;;;;;;;3.63;0.30;;;11.70;99.90;;;;;;5095391;28;20028;-75
2021/10/15 07:57:15;;;;;;;2.38;0.20;;;11.60;99.90;;;;;;5094952;28;20031;-75
2021/10/15 07:59:42;;;;;;;0.63;0.10;;;11.50;99.90;;;;;;5094874;28;20031;-74
2021/10/15 08:02:09;;;;;;;1.48;0.10;;;11.50;99.90;;;;;;5095096;28;20515;-74
2021/10/15 08:04:35;;;;;;;1.33;0.10;;;11.50;99.90;;;;;;5095843;28;20032;-73
2021/10/15 08:07:02;;;;;;;2.92;0.10;;;11.50;99.90;;;;;;5093025;28;20027;-75
2021/10/15 08:09:28;;;;;;;1.38;0.10;;;11.40;99.90;;;;;;5089552;28;20129;-75
2021/10/15 08:11:53;;;;;;;2.67;0.10;;;11.40;99.90;;;;;;5094070;28;20161;-75
2021/10/15 08:14:20;;;;;;;0.75;0.15;;;11.40;99.90;;;;;;5093556;28;20024;-75
2021/10/15 08:16:46;;;;;;;1.58;0.10;;;11.40;99.90;;;;;;5095831;28;20059;-75
2021/10/15 08:19:12;;;;;;;1.73;0.17;;;11.40;99.90;;;;;;5095929;28;20396;-75
2021/10/15 08:21:38;;;;;;;3.50;0.10;;;11.40;99.90;;;;;;5078834;28;20107;-74
2021/10/15 08:24:04;;;;;;;3.25;0.20;;;11.40;99.90;;;;;;5092443;28;20546;-74
2021/10/15 08:26:29;;;;;;;1.15;0.10;;;11.50;99.90;;;;;;5093968;28;20035;-74
2021/10/15 08:28:59;;;;;;;4.47;0.35;;;11.50;99.90;;;;;;5095300;28;20056;-74
2021/10/15 08:31:26;;;;;;;2.53;0.10;;;11.50;99.90;;;;;;5090838;28;20553;-74
2021/10/15 08:33:51;;;;;;;1.25;0.20;;;11.60;99.90;;;;;;5094762;28;20452;-72
2021/10/15 08:36:17;;;;;;;2.63;0.20;;;11.60;99.90;;;;;;5095117;28;20053;-71
2021/10/15 08:38:43;;;;;;;2.90;0.22;;;11.60;99.90;;;;;;5094157;28;20074;-71
2021/10/15 08:41:10;;;;;;;4.30;0.30;;;11.70;99.90;;;;;;5093250;28;20023;-71
2021/10/15 08:43:38;;;;;;;4.47;0.35;;;11.80;99.90;;;;;;5095079;28;20019;-71
2021/10/15 08:46:05;;;;;;;1.20;0.30;;;11.80;99.90;;;;;;5093378;28;20038;-71
2021/10/15 08:48:30;;;;;;;3.30;0.25;;;11.90;99.90;;;;;;5095028;28;20035;-71
2021/10/15 08:50:57;;;;;;;9.57;0.60;;;12.00;99.90;;;;;;5093977;28;20028;-71
2021/10/15 08:53:23;;;;;;;1.35;0.28;;;12.00;99.90;;;;;;5094789;28;20103;-72
2021/10/15 08:55:49;;;;;;;2.80;0.20;;;12.10;99.90;;;;;;5086455;28;20108;-71
2021/10/15 08:58:14;;;;;;;5.40;0.68;;;12.20;99.90;;;;;;5077459;28;20111;-71
2021/10/15 09:00:40;;;;;;;1.58;0.20;;;12.20;99.90;;;;;;5092031;28;20466;-71
2021/10/15 09:03:21;;;;;;;3.35;0.35;;;12.30;99.90;;;;;;5094862;28;20099;-72
2021/10/15 09:06:00;;;;;;;2.40;0.30;;;12.30;99.90;;;;;;5091423;28;20363;-72
2021/10/15 09:08:43;;;;;;;4.18;0.28;;;12.40;99.90;;;;;;5094071;28;20024;-72
2021/10/15 09:11:30;;;;;;;3.65;0.20;;;12.50;99.90;;;;;;5085690;28;20032;-72
2021/10/15 09:14:19;;;;;;;5.00;0.20;;;12.50;99.90;;;;;;5080005;28;20379;-71
2021/10/15 09:17:12;;;;;;;2.63;0.30;;;12.50;99.90;;;;;;5076540;28;20513;-71
2021/10/15 09:19:40;;;;;;;;;;;12.50;99.90;;;;;;5074783;28;20039;-72
2021/10/15 09:22:14;;;;;;;7.45;0.50;;;12.60;99.90;;;;;;5089959;28;19908;-71
2021/10/15 09:24:42;;;;;;;4.65;0.40;;;12.60;99.90;;;;;;5092518;28;20016;-71
2021/10/15 09:27:29;;;;;;;4.90;0.70;;;12.60;99.90;;;;;;5089034;28;20020;-72
2021/10/15 09:29:58;;;;;;;5.95;0.47;;;12.60;99.90;;;;;;5094354;28;20024;-72
2021/10/15 09:32:26;;;;;;;5.47;0.47;;;12.60;99.90;;;;;;5072555;28;20024;-71
2021/10/15 09:34:52;;;;;;;3.70;0.50;;;12.50;99.90;;;;;;5074303;28;20029;-71
2021/10/15 09:37:24;;;;;;;3.50;0.30;;;12.70;99.90;;;;;;5090656;28;20028;-72
2021/10/15 09:39:59;;;;;;;9.43;0.55;;;12.70;99.90;;;;;;5090529;28;20031;-72
2021/10/15 09:42:28;;;;;;;3.55;0.35;;;12.80;99.90;;;;;;5085255;28;20371;-72
2021/10/15 09:44:54;;;;;;;3.03;0.30;;;12.80;99.90;;;;;;5094281;28;20024;-71
2021/10/15 09:47:26;;;;;;;5.85;0.45;;;12.80;99.90;;;;;;5090258;28;20036;-71
2021/10/15 09:49:58;;;;;;;4.72;0.60;;;12.80;99.90;;;;;;5091893;28;20024;-72
2021/10/15 09:52:39;;;;;;;5.23;0.60;;;12.80;99.90;;;;;;5091617;28;20024;-71
2021/10/15 09:55:17;;;;;;;4.03;0.30;;;12.90;99.90;;;;;;5080146;28;20317;-71
2021/10/15 09:57:45;;;;;;;5.13;0.50;;;12.80;99.90;;;;;;5093466;28;20024;-71
2021/10/15 10:00:16;;;;;;;5.57;0.40;;;12.80;99.90;;;;;;5090030;28;20031;-72
2021/10/15 10:02:42;;;;;;;4.30;0.40;;;12.70;99.90;;;;;;5082638;28;20486;-73
2021/10/15 10:05:14;;;;;;;6.38;0.40;;;12.60;99.90;;;;;;5089348;28;20100;-72
2021/10/15 10:07:41;;;;;;;3.67;0.32;;;12.50;99.90;;;;;;5090162;28;20477;-73
2021/10/15 10:10:09;;;;;;;7.20;0.38;;;12.50;99.90;;;;;;5073459;28;20478;-72
2021/10/15 10:12:36;;;;;;;4.13;0.38;;;12.40;99.90;;;;;;5071598;28;20047;-72
2021/10/15 10:15:07;;;;;;;10.30;0.57;;;12.40;99.90;;;;;;5087428;28;20019;-72
2021/10/15 10:17:43;;;;;;;6.28;0.73;;;12.60;99.90;;;;;;5086642;28;20171;-72
2021/10/15 10:20:13;;;;;;;5.20;0.50;;;12.70;99.90;;;;;;5083934;28;20093;-72
2021/10/15 10:22:57;;;;;;;11.85;1.27;;;12.90;99.90;;;;;;5093160;28;20027;-72
2021/10/15 10:25:25;;;;;;;7.57;1.50;;;13.10;99.90;;;;;;5089721;28;20362;-72
2021/10/15 10:27:51;;;;;;;4.38;0.60;;;13.20;99.90;;;;;;5077506;28;20036;-73
2021/10/15 10:30:33;;;;;;;6.20;0.50;;;13.30;99.90;;;;;;5092976;28;20019;-73
2021/10/15 10:33:00;;;;;;;6.05;0.73;;;13.30;99.90;;;;;;5091101;28;20470;-71
2021/10/15 10:35:27;;;;;;;10.88;0.40;;;13.20;99.90;;;;;;5087717;28;20036;-71
2021/10/15 10:38:21;;;;;;;5.97;0.50;;;13.20;99.90;;;;;;5092929;28;20024;-72
2021/10/15 10:41:02;;;;;;;4.55;0.30;;;13.30;99.90;;;;;;5092831;28;20016;-71
2021/10/15 10:43:28;;;;;;;7.72;0.43;;;13.50;99.90;;;;;;5092537;28;20575;-72
2021/10/15 10:46:09;;;;;;;8.15;0.35;;;13.60;99.90;;;;;;5084342;28;20059;-73
2021/10/15 10:48:54;;;;;;;4.47;0.40;;;13.70;99.90;;;;;;5071925;28;20036;-73
2021/10/15 10:51:30;;;;;;;6.82;0.40;;;13.90;99.90;;;;;;5072539;28;20028;-73
2021/10/15 10:54:03;;;;;;;6.57;0.45;;;13.90;99.90;;;;;;5072806;28;20405;-71
2021/10/15 10:56:46;;;;;;;6.18;0.90;;;13.80;99.90;;;;;;5070777;28;20455;-72
2021/10/15 10:59:21;;;;;;;4.80;0.32;;;13.70;99.90;;;;;;5086462;28;20081;-71
2021/10/15 11:01:54;;;;;;;4.63;0.88;;;13.50;99.90;;;;;;5091001;28;20028;-72
2021/10/15 11:04:42;;;;;;;5.70;0.43;;;13.40;99.90;;;;;;5083567;28;20171;-71
2021/10/15 11:07:17;;;;;;;6.63;0.30;;;13.50;99.90;;;;;;5077072;28;20107;-72
2021/10/15 11:09:49;;;;;;;9.60;0.40;;;13.60;99.90;;;;;;5084500;28;20043;-73
2021/10/15 11:12:27;;;;;;;;;;;13.80;99.90;;;;;;5078576;28;20033;-73
2021/10/15 11:15:00;;;;;;;10.55;0.43;;;14.00;99.90;;;;;;5092414;28;19951;-73
2021/10/15 11:17:32;;;;;;;5.18;0.30;;;14.20;99.90;;;;;;5084063;28;20524;-73
2021/10/15 11:20:23;;;;;;;5.05;0.52;;;14.40;99.90;;;;;;5073121;28;20025;-73
2021/10/15 11:22:51;;;;;;;8.88;0.68;;;14.50;99.70;;;;;;5074410;28;20424;-73
2021/10/15 11:25:18;;;;;;;5.00;0.30;;;14.30;99.50;;;;;;5088135;28;20017;-71
2021/10/15 11:27:52;;;;;;;10.10;0.70;;;14.20;99.20;;;;;;5072068;28;20043;-74
2021/10/15 11:30:21;;;;;;;4.15;0.55;;;14.20;98.90;;;;;;5071665;28;20074;-75
2021/10/15 11:32:50;;;;;;;13.57;0.60;;;14.30;98.90;;;;;;5070693;28;20020;-73
2021/10/15 11:35:20;;;;;;;7.45;0.52;;;14.50;98.40;;;;;;5083775;28;20056;-71
2021/10/15 11:38:05;;;;;;;3.60;0.32;;;14.70;98.40;;;;;;5085031;28;20036;-71
2021/10/15 11:40:40;;;;;;;7.60;0.40;;;14.90;97.30;;;;;;5076507;28;20048;-71
2021/10/15 11:43:11;;;;;;;5.47;0.43;;;14.90;96.20;;;;;;5083428;28;20582;-71
2021/10/15 11:45:48;;;;;;;4.30;0.30;;;14.60;96.30;;;;;;5089505;28;20031;-71
2021/10/15 11:48:15;;;;;;;8.93;0.90;;;14.40;96.60;;;;;;5090778;28;20270;-71
2021/10/15 11:50:48;;;;;;;3.70;0.30;;;14.30;96.50;;;;;;5085326;28;20032;-71
2021/10/15 11:53:20;;;;;;;4.75;0.50;;;14.30;95.90;;;;;;5091793;28;20437;-70
2021/10/15 11:55:46;;;;;;;5.20;0.40;;;14.40;95.90;;;;;;5091184;28;20490;-71
2021/10/15 11:58:25;;;;;;;4.43;0.32;;;14.50;95.70;;;;;;5091649;28;20055;-71
2021/10/15 12:00:54;;;;;;;7.60;0.40;;;14.70;95.60;;;;;;5089150;28;20024;-71
2021/10/15 12:03:28;;;;;;;4.95;0.30;;;14.90;95.90;;;;;;5090598;28;20024;-71
2021/10/15 12:05:55;;;;;;;3.72;0.30;;;15.00;95.50;;;;;;5085356;28;20028;-72
2021/10/15 12:08:21;;;;;;;6.70;0.43;;;15.20;94.50;;;;;;5082159;28;20353;-72
2021/10/15 12:10:47;;;;;;;6.60;0.30;;;15.20;94.40;;;;;;5077789;28;20049;-72
2021/10/15 12:13:14;;;;;;;8.13;0.40;;;15.40;94.10;;;;;;5083949;28;20028;-72
2021/10/15 12:15:39;;;;;;;4.30;0.20;;;15.50;94.00;;;;;;5089184;28;20386;-72
2021/10/15 12:18:07;;;;;;;4.97;0.30;;;15.80;92.80;;;;;;5091548;28;20024;-72
2021/10/15 12:20:32;;;;;;;6.47;0.55;;;15.70;91.60;;;;;;5081489;28;20575;-72
2021/10/15 12:23:06;;;;;;;5.90;0.30;;;15.50;91.70;;;;;;5081334;28;20100;-73
2021/10/15 12:25:35;;;;;;;6.20;0.70;;;15.30;92.10;;;;;;5091280;28;20046;-71
2021/10/15 12:28:13;;;;;;;6.93;0.98;;;15.10;91.70;;;;;;5090216;28;20035;-71
2021/10/15 12:30:40;;;;;;;6.50;0.40;;;14.80;91.70;;;;;;5077930;28;20020;-72
2021/10/15 12:33:13;;;;;;;6.03;0.57;;;14.50;91.70;;;;;;5074277;28;20115;-71
2021/10/15 12:35:39;;;;;;;7.45;0.50;;;14.40;91.80;;;;;;5080736;28;20492;-72
2021/10/15 12:38:04;;;;;;;4.85;0.30;;;14.30;92.20;;;;;;5074952;28;20032;-71
2021/10/15 12:40:33;;;;;;;6.45;0.40;;;14.40;92.40;;;;;;5085160;28;20081;-71
2021/10/15 12:43:04;;;;;;;5.10;0.50;;;14.60;92.20;;;;;;5095071;28;20016;-71
2021/10/15 12:45:40;;;;;;;3.55;0.30;;;14.70;92.20;;;;;;5105307;28;20028;-72
2021/10/15 12:48:18;;;;;;;3.83;0.30;;;14.90;91.90;;;;;;5084054;28;20024;-72
2021/10/15 12:51:10;;;;;;;5.72;0.40;;;15.10;91.70;;;;;;5082220;28;20103;-72
2021/10/15 12:53:47;;;;;;;7.20;0.43;;;15.40;91.10;;;;;;5074211;28;20398;-72
2021/10/15 12:56:22;;;;;;;3.33;0.40;;;15.60;91.00;;;;;;5086692;28;20028;-72